Time;durP1;ratioP1;P1;durP2;ratioP2;P2;SDS_P1;SDS_P2;PMS_P1;PMS_P2;Temp;Humidity;BMP_temperature;BMP_pressure;BME280_temperature;BME280_humidity;BME280_pressure;Samples;Min_cycle;Max_cycle;Signal;HPM_P1;HPM_P2
2022/12/28 00:01:34;;;;;;;12.73;4.00;;;0.40;99.90;;;;;;6277500;28;20057;-81
2022/12/28 00:04:35;;;;;;;13.40;4.83;;;0.40;99.90;;;;;;6278758;28;20053;-82
2022/12/28 00:07:38;;;;;;;8.07;6.00;;;0.50;99.90;;;;;;6279539;28;20052;-81
2022/12/28 00:10:40;;;;;;;12.27;4.43;;;0.60;99.90;;;;;;6283511;28;20056;-81
2022/12/28 00:13:42;;;;;;;9.00;5.10;;;0.60;99.90;;;;;;6276592;28;20049;-81
2022/12/28 00:16:44;;;;;;;6.53;4.07;;;0.60;99.90;;;;;;6276850;28;20431;-80
2022/12/28 00:19:46;;;;;;;7.00;4.67;;;0.60;99.90;;;;;;6277570;28;20045;-81
2022/12/28 00:22:49;;;;;;;6.80;4.22;;;0.70;99.90;;;;;;6276335;28;20048;-81
2022/12/28 00:25:51;;;;;;;7.53;5.43;;;0.70;99.90;;;;;;6276339;28;20045;-81
2022/12/28 00:28:52;;;;;;;4.50;3.65;;;0.70;99.90;;;;;;6274813;28;20045;-82
2022/12/28 00:31:54;;;;;;;6.35;4.22;;;0.80;99.90;;;;;;6275543;28;20041;-81
2022/12/28 00:34:56;;;;;;;7.72;5.43;;;0.80;99.90;;;;;;6275987;28;20041;-81
2022/12/28 00:37:59;;;;;;;6.40;5.47;;;0.80;99.90;;;;;;6276024;28;20056;-81
2022/12/28 00:41:00;;;;;;;7.07;4.15;;;0.90;99.90;;;;;;6276330;28;20052;-81
2022/12/28 00:44:02;;;;;;;5.90;4.10;;;0.90;99.90;;;;;;6275433;28;20048;-81
2022/12/28 00:47:04;;;;;;;10.02;5.43;;;0.90;99.90;;;;;;6274894;28;20052;-81
2022/12/28 00:50:06;;;;;;;8.65;4.90;;;0.90;99.90;;;;;;6274831;28;20056;-82
2022/12/28 00:53:10;;;;;;;6.85;4.60;;;1.00;99.90;;;;;;6274572;28;20045;-81
2022/12/28 00:56:13;;;;;;;11.20;4.63;;;1.00;99.90;;;;;;6275030;28;20052;-81
2022/12/28 00:59:15;;;;;;;10.02;4.82;;;1.00;99.90;;;;;;6274933;28;20049;-81
2022/12/28 01:02:17;;;;;;;7.15;4.55;;;1.10;99.90;;;;;;6275348;28;20542;-81
2022/12/28 01:05:18;;;;;;;11.00;5.40;;;1.20;99.90;;;;;;6276488;28;20056;-81
2022/12/28 01:08:21;;;;;;;5.40;3.75;;;1.20;99.90;;;;;;6279492;28;20056;-81
2022/12/28 01:11:26;;;;;;;9.55;4.38;;;1.30;99.90;;;;;;6279699;28;20056;-80
2022/12/28 01:14:27;;;;;;;10.07;6.13;;;1.30;99.90;;;;;;6279898;28;20516;-81
2022/12/28 01:17:29;;;;;;;8.63;5.38;;;1.40;99.90;;;;;;6281184;28;20049;-80
2022/12/28 01:20:31;;;;;;;6.95;4.00;;;1.40;99.90;;;;;;6280993;28;20110;-81
2022/12/28 01:23:34;;;;;;;8.40;5.85;;;1.40;99.90;;;;;;6280684;28;20128;-82
2022/12/28 01:26:36;;;;;;;6.07;4.30;;;1.50;99.90;;;;;;6282194;28;20052;-81
2022/12/28 01:29:37;;;;;;;4.63;3.90;;;1.50;99.90;;;;;;6282563;28;20056;-80
2022/12/28 01:32:39;;;;;;;9.70;5.57;;;1.60;99.90;;;;;;6281053;28;20056;-81
2022/12/28 01:35:41;;;;;;;8.52;5.38;;;1.70;99.90;;;;;;6282332;28;20048;-81
2022/12/28 01:38:45;;;;;;;8.50;3.55;;;1.70;99.90;;;;;;6279319;28;20041;-80
2022/12/28 01:41:47;;;;;;;9.18;5.20;;;1.80;99.90;;;;;;6281545;28;20052;-80
2022/12/28 01:44:50;;;;;;;5.40;4.40;;;1.80;99.90;;;;;;6280784;28;20045;-81
2022/12/28 01:47:54;;;;;;;6.40;4.70;;;1.90;99.90;;;;;;6280822;28;20045;-81
2022/12/28 01:50:56;;;;;;;11.85;5.18;;;1.90;99.90;;;;;;6281394;28;20052;-80
2022/12/28 01:54:01;;;;;;;6.75;4.70;;;1.90;99.90;;;;;;6280967;28;20053;-82
2022/12/28 01:57:03;;;;;;;13.13;6.32;;;2.00;99.90;;;;;;6280668;28;20048;-81
2022/12/28 02:00:09;;;;;;;9.77;5.60;;;2.00;99.90;;;;;;6280443;28;20049;-81
2022/12/28 02:03:15;;;;;;;6.53;5.18;;;2.10;99.90;;;;;;6280748;28;20045;-80
2022/12/28 02:06:16;;;;;;;7.15;4.43;;;2.10;99.90;;;;;;6280260;28;20419;-81
2022/12/28 02:09:24;;;;;;;8.38;5.07;;;2.10;99.90;;;;;;6282327;28;20055;-81
2022/12/28 02:12:26;;;;;;;14.07;5.30;;;2.10;99.90;;;;;;6280577;28;20051;-81
2022/12/28 02:15:28;;;;;;;7.57;4.43;;;2.20;99.90;;;;;;6280083;28;20123;-81
2022/12/28 02:18:29;;;;;;;7.10;5.05;;;2.20;99.90;;;;;;6279272;28;20052;-81
2022/12/28 02:21:41;;;;;;;8.35;5.50;;;2.20;99.90;;;;;;6280460;28;20057;-81
2022/12/28 02:24:59;;;;;;;6.43;4.68;;;2.20;99.90;;;;;;6279574;28;20045;-80
2022/12/28 02:28:17;;;;;;;10.40;5.05;;;2.20;99.90;;;;;;6279239;28;20041;-81
2022/12/28 02:31:25;;;;;;;12.25;5.88;;;2.30;99.90;;;;;;6279603;28;20415;-81
2022/12/28 02:34:32;;;;;;;7.28;4.55;;;2.30;99.90;;;;;;6279815;28;20052;-80
2022/12/28 02:37:39;;;;;;;11.20;6.25;;;2.30;99.90;;;;;;6279329;28;20049;-81
2022/12/28 02:40:46;;;;;;;13.07;6.55;;;2.30;99.90;;;;;;6280176;28;20049;-81
2022/12/28 02:43:48;;;;;;;8.57;5.57;;;2.30;99.90;;;;;;6280136;28;20045;-82
2022/12/28 02:50:15;;;;;;;9.57;6.18;;;2.30;99.90;;;;;;6279057;28;20053;-81
2022/12/28 02:53:44;;;;;;;15.85;7.13;;;2.40;99.90;;;;;;6279655;28;20056;-83
2022/12/28 02:56:51;;;;;;;;;;;2.40;99.90;;;;;;6279296;28;20048;-81
2022/12/28 03:00:04;;;;;;;8.70;5.45;;;2.50;99.90;;;;;;6279601;28;19960;-82
2022/12/28 03:03:16;;;;;;;8.88;5.82;;;2.50;99.90;;;;;;6279934;28;20055;-81
2022/12/28 03:09:49;;;;;;;;;;;2.70;99.90;;;;;;6282544;28;20048;-81
2022/12/28 03:12:58;;;;;;;4.22;3.58;;;2.90;99.90;;;;;;6279687;28;19924;-81
2022/12/28 03:16:06;;;;;;;5.30;3.40;;;3.10;99.90;;;;;;6279360;28;20052;-81
2022/12/28 03:32:38;;;;;;;7.47;4.60;;;4.00;99.90;;;;;;6278431;28;20075;-82
2022/12/28 03:35:46;;;;;;;5.70;3.70;;;3.90;99.90;;;;;;6278297;28;20053;-82
2022/12/28 03:38:49;;;;;;;;;;;4.00;99.90;;;;;;6278460;28;20060;-81
2022/12/28 03:45:22;;;;;;;7.40;4.20;;;4.00;99.90;;;;;;6275214;28;20596;-80
2022/12/28 03:48:24;;;;;;;9.70;2.83;;;4.00;99.90;;;;;;6275050;28;20056;-81
2022/12/28 03:51:30;;;;;;;2.67;2.05;;;4.10;99.90;;;;;;6274719;28;20044;-80
2022/12/28 03:54:32;;;;;;;6.13;2.70;;;4.10;99.90;;;;;;6275197;28;20052;-80
2022/12/28 03:57:34;;;;;;;4.30;1.80;;;4.20;99.90;;;;;;6275538;28;20048;-81
2022/12/28 04:00:36;;;;;;;6.28;1.90;;;4.20;99.90;;;;;;6274733;28;20045;-81
2022/12/28 04:03:37;;;;;;;3.17;2.08;;;4.40;99.90;;;;;;6274948;28;20064;-81
2022/12/28 04:06:42;;;;;;;3.28;2.28;;;4.60;99.90;;;;;;6275864;28;20036;-81
2022/12/28 04:09:44;;;;;;;3.88;2.63;;;4.60;99.90;;;;;;6275021;28;20057;-81
2022/12/28 04:12:46;;;;;;;8.23;3.00;;;4.70;99.90;;;;;;6274330;28;20048;-81
2022/12/28 04:15:56;;;;;;;2.28;1.70;;;4.70;99.90;;;;;;6274987;28;20055;-80
2022/12/28 04:18:58;;;;;;;2.47;1.90;;;4.80;99.90;;;;;;6274778;28;20096;-80
2022/12/28 04:22:01;;;;;;;1.77;1.02;;;4.90;99.90;;;;;;6275938;28;20048;-81
2022/12/28 04:25:04;;;;;;;1.63;1.50;;;5.00;99.90;;;;;;6275412;28;20052;-80
2022/12/28 04:28:06;;;;;;;3.45;1.50;;;5.10;99.90;;;;;;6274960;28;20041;-81
2022/12/28 04:31:10;;;;;;;4.40;1.30;;;5.20;99.90;;;;;;6274139;28;20049;-80
2022/12/28 04:34:12;;;;;;;3.80;1.98;;;5.30;99.90;;;;;;6274406;28;20053;-80
2022/12/28 04:37:15;;;;;;;1.85;1.05;;;5.40;99.90;;;;;;6275508;28;20049;-80
2022/12/28 04:40:16;;;;;;;3.05;0.70;;;5.50;99.90;;;;;;6274818;28;20052;-80
2022/12/28 04:43:18;;;;;;;3.20;0.70;;;5.50;99.90;;;;;;6273953;28;20532;-80
2022/12/28 04:46:20;;;;;;;0.70;0.60;;;5.60;99.90;;;;;;6274297;28;20055;-80
2022/12/28 04:49:21;;;;;;;2.75;0.60;;;5.70;99.90;;;;;;6274549;28;20060;-80
2022/12/28 04:52:24;;;;;;;5.05;0.82;;;5.80;99.90;;;;;;6274177;28;20045;-81
2022/12/28 04:55:26;;;;;;;3.35;1.33;;;6.00;99.90;;;;;;6274197;28;20053;-80
2022/12/28 04:58:28;;;;;;;1.40;1.23;;;6.20;99.90;;;;;;6274100;28;20487;-81
2022/12/28 05:01:31;;;;;;;2.08;1.13;;;6.30;99.90;;;;;;6273468;28;20075;-81
2022/12/28 05:04:32;;;;;;;2.80;0.75;;;6.50;99.90;;;;;;6273459;28;20045;-81
2022/12/28 05:07:35;;;;;;;2.63;0.47;;;6.60;99.90;;;;;;6274747;28;20041;-81
2022/12/28 05:10:37;;;;;;;1.02;0.70;;;6.80;99.90;;;;;;6275022;28;20049;-80
2022/12/28 05:13:39;;;;;;;0.90;0.63;;;6.90;99.90;;;;;;6275284;28;20056;-80
2022/12/28 05:16:40;;;;;;;1.40;1.00;;;7.00;99.90;;;;;;6275162;28;20052;-81
2022/12/28 05:19:42;;;;;;;2.53;1.30;;;7.00;99.90;;;;;;6274043;28;20055;-81
2022/12/28 05:22:45;;;;;;;1.80;0.93;;;7.10;99.90;;;;;;6274475;28;20048;-81
2022/12/28 05:25:52;;;;;;;3.05;1.00;;;7.20;99.90;;;;;;6274730;28;20049;-81
2022/12/28 05:28:55;;;;;;;1.35;0.77;;;7.30;99.90;;;;;;6274143;28;20041;-80
2022/12/28 05:31:56;;;;;;;3.22;1.00;;;7.40;99.90;;;;;;6274106;28;20049;-80
2022/12/28 05:34:58;;;;;;;1.88;0.55;;;7.40;99.90;;;;;;6274957;28;20496;-81
2022/12/28 05:38:02;;;;;;;1.95;0.93;;;7.50;99.90;;;;;;6274805;28;20045;-80
2022/12/28 05:41:07;;;;;;;2.85;0.65;;;7.60;99.90;;;;;;6273811;28;20051;-81
2022/12/28 05:44:08;;;;;;;0.85;0.60;;;7.70;99.90;;;;;;6273822;28;20040;-80
2022/12/28 05:47:10;;;;;;;2.72;0.73;;;7.80;99.90;;;;;;6275658;28;20052;-80
2022/12/28 05:50:11;;;;;;;2.22;0.57;;;7.90;99.90;;;;;;6280088;28;20053;-81
2022/12/28 05:53:14;;;;;;;2.22;0.85;;;7.80;99.90;;;;;;6283360;28;20423;-83
2022/12/28 05:56:19;;;;;;;1.13;0.90;;;7.90;99.90;;;;;;6287987;28;20045;-82
2022/12/28 05:59:20;;;;;;;5.50;0.73;;;7.90;99.90;;;;;;6287951;28;20045;-84
2022/12/28 06:02:26;;;;;;;5.90;0.80;;;7.90;99.90;;;;;;6285779;28;20524;-82
2022/12/28 06:05:27;;;;;;;0.70;0.70;;;8.00;99.90;;;;;;6286017;28;20045;-83
2022/12/28 06:08:30;;;;;;;2.85;1.08;;;8.00;99.90;;;;;;6285146;28;20048;-81
2022/12/28 06:11:32;;;;;;;3.47;1.10;;;8.00;99.90;;;;;;6283861;28;20056;-81
2022/12/28 06:14:34;;;;;;;1.90;0.60;;;7.90;99.90;;;;;;6279000;28;20056;-81
2022/12/28 06:17:35;;;;;;;2.95;0.70;;;7.90;99.90;;;;;;6278295;28;20041;-80
2022/12/28 06:20:37;;;;;;;1.80;0.68;;;7.80;99.90;;;;;;6277562;28;20045;-81
2022/12/28 06:23:40;;;;;;;2.25;0.73;;;7.90;99.90;;;;;;6277411;28;20041;-81
2022/12/28 06:26:42;;;;;;;1.42;0.70;;;7.90;99.90;;;;;;6277390;28;20414;-80
2022/12/28 06:29:43;;;;;;;2.42;0.60;;;7.90;99.90;;;;;;6278593;28;20483;-80
2022/12/28 06:32:45;;;;;;;1.08;0.55;;;7.90;99.90;;;;;;6275889;28;20049;-80
2022/12/28 06:35:47;;;;;;;4.68;0.63;;;7.90;99.90;;;;;;6276955;28;20045;-80
2022/12/28 06:38:51;;;;;;;2.97;0.82;;;7.90;99.90;;;;;;6277744;28;20045;-80
2022/12/28 06:41:52;;;;;;;1.02;0.93;;;7.80;99.90;;;;;;6277791;28;20060;-80
2022/12/28 06:44:54;;;;;;;0.77;0.57;;;7.80;99.90;;;;;;6276408;28;20052;-80
2022/12/28 06:47:56;;;;;;;1.70;1.27;;;7.90;99.90;;;;;;6277135;28;20044;-81
2022/12/28 06:50:58;;;;;;;0.63;0.63;;;7.90;99.90;;;;;;6278991;28;20511;-81
2022/12/28 06:54:01;;;;;;;5.38;1.13;;;7.90;99.90;;;;;;6279614;28;20057;-80
2022/12/28 06:57:03;;;;;;;1.05;0.80;;;7.90;99.90;;;;;;6277329;28;20045;-81
2022/12/28 07:00:06;;;;;;;2.65;0.73;;;8.00;99.90;;;;;;6278921;28;20049;-81
2022/12/28 07:03:08;;;;;;;1.35;0.77;;;8.00;99.90;;;;;;6278383;28;20049;-81
2022/12/28 07:06:10;;;;;;;0.90;0.60;;;8.00;99.90;;;;;;6279005;28;20057;-81
2022/12/28 07:09:15;;;;;;;1.35;0.50;;;8.10;99.90;;;;;;6278529;28;20068;-81
2022/12/28 07:12:17;;;;;;;2.33;1.02;;;8.20;99.90;;;;;;6277659;28;20392;-81
2022/12/28 07:15:19;;;;;;;1.52;0.57;;;8.20;99.90;;;;;;6282120;28;20677;-82
2022/12/28 07:18:20;;;;;;;4.38;1.00;;;8.30;99.90;;;;;;6281113;28;20041;-82
2022/12/28 07:21:24;;;;;;;0.80;0.70;;;8.30;99.90;;;;;;6281780;28;20053;-82
2022/12/28 07:24:27;;;;;;;1.50;0.65;;;8.30;99.90;;;;;;6282338;28;20064;-81
2022/12/28 07:27:29;;;;;;;2.10;0.98;;;8.30;99.90;;;;;;6275603;28;20410;-79
2022/12/28 07:30:31;;;;;;;2.65;1.20;;;8.40;99.90;;;;;;6274695;28;20049;-79
2022/12/28 07:33:33;;;;;;;1.58;1.48;;;8.40;99.90;;;;;;6275403;28;20055;-79
2022/12/28 07:36:35;;;;;;;2.50;0.85;;;8.40;99.90;;;;;;6273353;28;20044;-80
2022/12/28 07:39:38;;;;;;;1.80;0.95;;;8.50;99.90;;;;;;6276350;28;20518;-80
2022/12/28 07:42:39;;;;;;;0.60;0.60;;;8.40;99.90;;;;;;6276257;28;20055;-79
2022/12/28 07:45:41;;;;;;;4.28;1.23;;;8.40;99.90;;;;;;6277123;28;20399;-80
2022/12/28 07:48:44;;;;;;;1.95;0.80;;;8.50;99.90;;;;;;6276107;28;20044;-80
2022/12/28 07:51:45;;;;;;;3.38;0.80;;;8.50;99.90;;;;;;6275937;28;20044;-80
2022/12/28 07:54:48;;;;;;;1.48;0.75;;;8.50;99.90;;;;;;6277265;28;20047;-80
2022/12/28 07:57:51;;;;;;;2.80;0.90;;;8.60;99.90;;;;;;6275958;28;20490;-81
2022/12/28 08:00:53;;;;;;;1.48;1.00;;;8.60;99.90;;;;;;6277700;28;20052;-82
2022/12/28 08:03:57;;;;;;;1.83;1.25;;;8.60;99.90;;;;;;6277015;28;20045;-81
2022/12/28 08:06:58;;;;;;;2.30;0.88;;;8.60;99.90;;;;;;6277538;28;20072;-81
2022/12/28 08:10:01;;;;;;;1.55;0.82;;;8.60;99.90;;;;;;6277266;28;20510;-82
2022/12/28 08:13:03;;;;;;;1.20;1.08;;;8.60;99.90;;;;;;6276981;28;20063;-80
2022/12/28 08:16:06;;;;;;;4.97;1.38;;;8.60;99.90;;;;;;6276129;28;20056;-81
2022/12/28 08:19:08;;;;;;;1.75;0.93;;;8.60;99.90;;;;;;6248509;28;20052;-80
2022/12/28 08:22:10;;;;;;;2.03;1.20;;;8.60;99.90;;;;;;6275153;28;20045;-80
2022/12/28 08:25:13;;;;;;;2.08;1.27;;;8.60;99.90;;;;;;6274192;28;20060;-81
2022/12/28 08:28:15;;;;;;;1.30;0.85;;;8.70;99.90;;;;;;6278829;28;20049;-81
2022/12/28 08:31:19;;;;;;;2.53;0.60;;;8.80;99.90;;;;;;6275998;28;20517;-81
2022/12/28 08:34:25;;;;;;;1.00;0.68;;;8.80;99.90;;;;;;6277071;28;20495;-81
2022/12/28 08:37:26;;;;;;;1.92;0.70;;;8.90;99.90;;;;;;6272930;28;20052;-81
2022/12/28 08:40:30;;;;;;;3.88;1.15;;;8.90;99.90;;;;;;6273390;28;20045;-81
2022/12/28 08:43:32;;;;;;;4.88;0.65;;;9.00;99.90;;;;;;6275077;28;20053;-81
2022/12/28 08:46:36;;;;;;;1.77;1.00;;;9.10;99.90;;;;;;6265991;28;20360;-81
2022/12/28 08:49:37;;;;;;;3.35;0.95;;;9.10;99.90;;;;;;6255719;28;20041;-81
2022/12/28 08:52:39;;;;;;;1.98;0.85;;;9.10;99.90;;;;;;6261711;28;20056;-81
2022/12/28 08:55:42;;;;;;;1.75;0.80;;;9.20;99.90;;;;;;6276195;28;20057;-81
2022/12/28 08:58:45;;;;;;;1.30;0.98;;;9.20;99.90;;;;;;6275143;28;20068;-80
2022/12/28 09:01:47;;;;;;;2.17;1.10;;;9.30;99.90;;;;;;6276837;28;20049;-80
2022/12/28 09:04:49;;;;;;;1.15;1.05;;;9.30;99.90;;;;;;6274595;28;20048;-80
2022/12/28 09:07:51;;;;;;;1.17;0.80;;;9.40;99.90;;;;;;6276007;28;20050;-81
2022/12/28 09:10:54;;;;;;;3.15;0.80;;;9.50;99.90;;;;;;6276222;28;20049;-80
2022/12/28 09:13:56;;;;;;;3.25;1.50;;;9.60;99.90;;;;;;6277269;28;20053;-81
2022/12/28 09:16:58;;;;;;;4.68;1.35;;;9.70;99.90;;;;;;6273616;28;20044;-82
2022/12/28 09:20:00;;;;;;;1.88;0.60;;;9.70;99.90;;;;;;6277416;28;20056;-82
2022/12/28 09:23:01;;;;;;;1.02;0.88;;;9.80;99.90;;;;;;6267087;28;20049;-83
2022/12/28 09:26:06;;;;;;;1.13;0.75;;;9.90;99.90;;;;;;6274960;28;20495;-81
2022/12/28 09:29:10;;;;;;;1.50;0.70;;;10.00;99.90;;;;;;6278581;28;20045;-81
2022/12/28 09:32:12;;;;;;;1.50;1.05;;;10.00;99.90;;;;;;6282495;28;20051;-82
2022/12/28 09:35:14;;;;;;;2.17;0.90;;;10.10;99.90;;;;;;6279044;28;20063;-80
2022/12/28 09:38:16;;;;;;;3.00;1.08;;;10.10;99.90;;;;;;6278618;28;20052;-82
2022/12/28 09:41:26;;;;;;;2.47;1.20;;;10.20;99.90;;;;;;6275855;28;20048;-81
2022/12/28 09:44:52;;;;;;;1.52;0.85;;;10.20;99.90;;;;;;6250661;28;20056;-79
2022/12/28 09:47:59;;;;;;;1.60;0.85;;;10.30;99.90;;;;;;6246827;28;20067;-79
2022/12/28 09:51:00;;;;;;;0.82;0.60;;;10.30;99.90;;;;;;6254704;28;20044;-78
2022/12/28 09:54:03;;;;;;;2.33;0.70;;;10.30;99.90;;;;;;6260354;28;20526;-78
2022/12/28 09:57:11;;;;;;;1.75;1.13;;;10.30;99.90;;;;;;6249300;28;20068;-79
2022/12/28 10:00:17;;;;;;;1.77;0.98;;;10.40;99.90;;;;;;6248204;28;20664;-79
2022/12/28 10:03:22;;;;;;;1.85;0.60;;;10.50;99.90;;;;;;6249690;28;20250;-78
2022/12/28 10:06:26;;;;;;;2.53;1.08;;;10.50;99.90;;;;;;6249476;28;20046;-78
2022/12/28 10:09:31;;;;;;;2.67;1.83;;;10.60;99.90;;;;;;6248994;28;20064;-79
2022/12/28 10:12:34;;;;;;;3.22;0.70;;;10.70;99.90;;;;;;6248962;28;20530;-78
2022/12/28 10:15:36;;;;;;;4.50;0.80;;;10.70;99.90;;;;;;6248763;28;20045;-77
2022/12/28 10:18:39;;;;;;;1.42;1.20;;;10.80;99.90;;;;;;6249548;28;20052;-77
2022/12/28 10:21:40;;;;;;;2.15;0.80;;;10.80;99.90;;;;;;6265361;28;20471;-78
2022/12/28 10:24:43;;;;;;;3.17;1.10;;;10.80;99.90;;;;;;6252827;28;20053;-78
2022/12/28 10:27:46;;;;;;;3.30;0.77;;;10.90;99.90;;;;;;6247902;28;20049;-77
2022/12/28 10:31:02;;;;;;;3.53;0.90;;;11.00;99.90;;;;;;6247958;28;20056;-77
2022/12/28 10:34:15;;;;;;;2.47;1.13;;;11.00;99.90;;;;;;6257483;28;20048;-78
2022/12/28 10:37:17;;;;;;;0.88;0.63;;;11.00;99.90;;;;;;6273108;28;20514;-82
2022/12/28 10:40:25;;;;;;;3.30;1.20;;;11.10;99.90;;;;;;6278728;28;20045;-80
2022/12/28 10:43:32;;;;;;;3.10;1.25;;;11.10;99.90;;;;;;6278067;28;20529;-81
2022/12/28 10:46:34;;;;;;;5.90;1.60;;;11.10;99.90;;;;;;6280025;28;20052;-81
2022/12/28 10:49:49;;;;;;;2.42;0.75;;;11.10;99.90;;;;;;6278804;28;20487;-81
2022/12/28 10:52:57;;;;;;;2.50;1.17;;;11.20;99.90;;;;;;6266374;28;20054;-79
2022/12/28 10:56:04;;;;;;;5.30;1.08;;;11.30;99.90;;;;;;6250108;28;20076;-81
2022/12/28 10:59:25;;;;;;;1.08;0.63;;;11.30;99.90;;;;;;6252924;28;20056;-80
2022/12/28 11:02:29;;;;;;;0.60;0.60;;;11.40;99.90;;;;;;6259231;28;20049;-81
2022/12/28 11:05:30;;;;;;;1.42;0.40;;;11.40;99.90;;;;;;6270113;28;20056;-79
2022/12/28 11:08:32;;;;;;;1.05;0.70;;;11.40;99.90;;;;;;6272567;28;20418;-78
2022/12/28 11:11:34;;;;;;;2.85;0.80;;;11.40;99.90;;;;;;6273916;28;20041;-79
2022/12/28 11:14:38;;;;;;;2.22;0.63;;;11.40;99.90;;;;;;6273770;28;20045;-79
2022/12/28 11:17:40;;;;;;;2.00;0.63;;;11.40;99.90;;;;;;6273323;28;20663;-79
2022/12/28 11:20:45;;;;;;;5.40;1.13;;;11.40;99.90;;;;;;6273131;28;20037;-79
2022/12/28 11:23:47;;;;;;;0.93;0.70;;;11.50;99.90;;;;;;6261751;28;20053;-79
2022/12/28 11:26:50;;;;;;;0.90;0.82;;;11.60;99.90;;;;;;6248288;28;20122;-79
2022/12/28 11:29:54;;;;;;;5.57;1.13;;;11.60;99.90;;;;;;6247787;28;20049;-79
2022/12/28 11:32:59;;;;;;;1.05;0.60;;;11.80;99.90;;;;;;6247937;28;20041;-79
2022/12/28 11:36:01;;;;;;;0.90;0.68;;;12.20;99.90;;;;;;6248373;28;20050;-78
2022/12/28 11:39:43;;;;;;;5.05;0.98;;;12.50;99.90;;;;;;6249100;28;20046;-79
2022/12/28 11:42:54;;;;;;;0.77;0.70;;;12.80;99.90;;;;;;6262299;28;20049;-79
2022/12/28 11:45:58;;;;;;;3.13;0.68;;;12.80;99.90;;;;;;6250179;28;20055;-80
2022/12/28 11:49:02;;;;;;;0.95;0.68;;;12.70;99.90;;;;;;6250579;28;20497;-80
2022/12/28 11:52:44;;;;;;;1.15;0.60;;;12.70;99.90;;;;;;6265868;28;20044;-80
2022/12/28 11:56:03;;;;;;;1.83;1.10;;;12.60;99.90;;;;;;6251387;28;20060;-81
2022/12/28 11:59:21;;;;;;;0.80;0.68;;;12.60;99.90;;;;;;6250802;28;20580;-79
2022/12/28 12:02:40;;;;;;;1.00;0.60;;;12.70;99.90;;;;;;6251135;28;20072;-80
2022/12/28 12:05:50;;;;;;;0.68;0.60;;;12.70;99.90;;;;;;6252587;28;20089;-80
2022/12/28 12:08:53;;;;;;;1.73;0.90;;;12.50;99.90;;;;;;6250245;28;20080;-80
2022/12/28 12:11:56;;;;;;;2.45;1.38;;;12.50;99.90;;;;;;6252345;28;20045;-79
2022/12/28 12:15:04;;;;;;;2.20;0.77;;;12.40;99.90;;;;;;6258709;28;20052;-79
2022/12/28 12:18:16;;;;;;;1.77;0.88;;;12.30;99.90;;;;;;6261416;28;20141;-79
2022/12/28 12:21:29;;;;;;;3.45;0.90;;;12.20;99.90;;;;;;6265654;28;20043;-79
2022/12/28 12:24:36;;;;;;;3.50;1.38;;;12.20;99.90;;;;;;6267702;28;20051;-80
2022/12/28 12:27:43;;;;;;;0.85;0.60;;;12.30;99.90;;;;;;6272945;28;20406;-79
2022/12/28 12:30:46;;;;;;;2.87;2.50;;;12.40;99.90;;;;;;6267051;28;20060;-79
2022/12/28 12:33:52;;;;;;;2.05;0.80;;;12.30;99.90;;;;;;6261201;28;20415;-79
2022/12/28 12:37:12;;;;;;;4.30;0.85;;;12.30;99.90;;;;;;6248673;28;20041;-79
2022/12/28 12:40:43;;;;;;;1.33;0.70;;;12.40;99.90;;;;;;6247859;28;20041;-79
2022/12/28 12:43:56;;;;;;;1.83;0.75;;;12.40;99.90;;;;;;6254572;28;20041;-79
2022/12/28 12:47:20;;;;;;;3.72;1.08;;;12.40;99.90;;;;;;6249178;28;20046;-81
2022/12/28 12:50:41;;;;;;;1.38;0.80;;;12.40;99.90;;;;;;6252488;28;20041;-78
2022/12/28 12:53:59;;;;;;;2.47;0.93;;;12.40;99.90;;;;;;6264462;28;20052;-79
2022/12/28 12:57:07;;;;;;;6.40;0.73;;;12.40;99.90;;;;;;6273841;28;20052;-79
2022/12/28 13:00:14;;;;;;;2.17;1.02;;;12.30;99.90;;;;;;6274902;28;20044;-80
2022/12/28 13:03:23;;;;;;;2.63;0.80;;;12.30;99.90;;;;;;6278420;28;20653;-80
2022/12/28 13:06:30;;;;;;;3.58;0.70;;;12.30;99.90;;;;;;6278662;28;20049;-79
2022/12/28 13:09:34;;;;;;;2.30;0.50;;;12.30;99.90;;;;;;6278530;28;20408;-80
2022/12/28 13:12:36;;;;;;;0.80;0.73;;;12.40;99.90;;;;;;6278222;28;20570;-79
2022/12/28 13:15:43;;;;;;;1.20;0.82;;;12.50;99.90;;;;;;6277705;28;20049;-79
2022/12/28 13:18:54;;;;;;;2.47;0.65;;;12.50;99.90;;;;;;6277438;28;20052;-79
2022/12/28 13:21:57;;;;;;;1.05;0.73;;;12.60;99.90;;;;;;6275345;28;20053;-79
2022/12/28 13:24:59;;;;;;;3.78;2.03;;;12.50;99.90;;;;;;6256228;28;20053;-79
2022/12/28 13:28:03;;;;;;;1.77;0.70;;;12.50;99.90;;;;;;6253796;28;20057;-79
2022/12/28 13:31:09;;;;;;;1.75;1.27;;;12.50;99.90;;;;;;6253124;28;20057;-79
2022/12/28 13:34:17;;;;;;;0.43;0.40;;;12.40;99.90;;;;;;6254156;28;20450;-79
2022/12/28 13:37:21;;;;;;;;;;;12.40;99.90;;;;;;6252965;28;20076;-80
2022/12/28 13:40:22;;;;;;;4.80;2.85;;;12.40;99.90;;;;;;6253628;28;19925;-79
2022/12/28 13:43:57;;;;;;;9.55;2.63;;;12.40;99.90;;;;;;6274548;28;20045;-79
2022/12/28 13:47:04;;;;;;;1.98;1.15;;;12.40;99.90;;;;;;6273633;28;20052;-80
2022/12/28 13:50:09;;;;;;;2.28;1.33;;;12.40;99.90;;;;;;6278851;28;20048;-79
2022/12/28 13:53:16;;;;;;;3.45;1.02;;;12.40;99.90;;;;;;6262093;28;20065;-79
2022/12/28 13:56:21;;;;;;;2.60;1.23;;;12.50;99.90;;;;;;6254356;28;20072;-79
2022/12/28 13:59:23;;;;;;;4.97;1.65;;;12.60;99.90;;;;;;6252064;28;20048;-80
2022/12/28 14:02:26;;;;;;;2.75;1.13;;;12.60;99.90;;;;;;6252191;28;20045;-80
2022/12/28 14:05:30;;;;;;;3.55;1.42;;;12.90;99.90;;;;;;6253453;28;20049;-79
2022/12/28 14:08:36;;;;;;;3.95;0.80;;;13.30;99.90;;;;;;6252157;28;20106;-79
2022/12/28 14:11:39;;;;;;;4.75;2.03;;;13.50;99.50;;;;;;6250649;28;20045;-79
2022/12/28 14:14:43;;;;;;;2.22;0.75;;;13.50;99.30;;;;;;6251498;28;20046;-79
2022/12/28 14:17:46;;;;;;;23.95;17.83;;;13.50;99.30;;;;;;6251667;28;20456;-80
2022/12/28 14:20:49;;;;;;;2.10;1.02;;;13.70;99.30;;;;;;6262000;28;20057;-80
2022/12/28 14:24:03;;;;;;;6.60;4.72;;;13.90;99.30;;;;;;6282145;28;20056;-80
2022/12/28 14:27:05;;;;;;;5.18;4.68;;;13.80;99.10;;;;;;6282877;28;20053;-81
2022/12/28 14:30:20;;;;;;;4.53;3.92;;;13.90;99.10;;;;;;6283242;28;20045;-81
2022/12/28 14:33:23;;;;;;;0.93;0.60;;;13.80;99.20;;;;;;6274768;28;20054;-80
2022/12/28 14:36:29;;;;;;;0.88;0.57;;;13.70;99.00;;;;;;6257825;28;20061;-81
2022/12/28 14:39:34;;;;;;;1.58;0.85;;;13.50;98.90;;;;;;6256294;28;20045;-80
2022/12/28 14:42:36;;;;;;;1.77;0.98;;;13.30;98.50;;;;;;6257024;28;20064;-80
2022/12/28 14:45:42;;;;;;;1.80;0.77;;;13.10;98.70;;;;;;6270555;28;20041;-79
2022/12/28 14:48:44;;;;;;;2.03;0.90;;;12.90;99.00;;;;;;6275401;28;20045;-79
2022/12/28 14:51:46;;;;;;;0.90;0.85;;;12.80;99.20;;;;;;6268714;28;20506;-78
2022/12/28 14:54:50;;;;;;;1.30;1.08;;;12.60;99.40;;;;;;6252828;28;20046;-78
2022/12/28 14:57:56;;;;;;;2.42;0.80;;;12.50;99.60;;;;;;6253356;28;20049;-79
2022/12/28 15:01:00;;;;;;;1.27;1.17;;;12.30;99.70;;;;;;6271824;28;20498;-77
2022/12/28 15:04:03;;;;;;;3.30;1.10;;;12.20;99.90;;;;;;6272220;28;20422;-78
2022/12/28 15:07:07;;;;;;;1.13;0.80;;;12.00;99.90;;;;;;6271836;28;20195;-78
2022/12/28 15:10:10;;;;;;;8.18;1.25;;;11.80;99.90;;;;;;6271737;28;20048;-78
2022/12/28 15:13:11;;;;;;;1.48;1.10;;;11.70;99.90;;;;;;6274977;28;20049;-79
2022/12/28 15:16:14;;;;;;;3.15;1.90;;;11.60;99.90;;;;;;6277148;28;20052;-79
2022/12/28 15:19:16;;;;;;;1.30;1.05;;;11.50;99.90;;;;;;6275052;28;20537;-78
2022/12/28 15:22:17;;;;;;;21.52;10.13;;;11.50;99.90;;;;;;6268306;28;20045;-80
2022/12/28 15:25:20;;;;;;;3.83;1.52;;;11.40;99.90;;;;;;6275517;28;20049;-79
2022/12/28 15:28:24;;;;;;;23.65;10.88;;;11.30;99.90;;;;;;6275874;28;20491;-78
2022/12/28 15:31:26;;;;;;;11.10;6.38;;;11.30;99.90;;;;;;6275181;28;20049;-79
2022/12/28 15:34:27;;;;;;;23.33;9.10;;;11.20;99.90;;;;;;6276485;28;20048;-79
2022/12/28 15:37:29;;;;;;;1.45;1.08;;;11.10;99.90;;;;;;6278268;28;20045;-80
2022/12/28 15:40:32;;;;;;;7.57;4.00;;;11.10;99.90;;;;;;6277959;28;20053;-80
2022/12/28 15:43:34;;;;;;;2.97;1.05;;;11.00;99.90;;;;;;6274296;28;20041;-79
2022/12/28 15:46:36;;;;;;;22.98;15.48;;;11.00;99.90;;;;;;6272168;28;20049;-79
2022/12/28 15:49:37;;;;;;;20.15;18.08;;;10.90;99.90;;;;;;6271635;28;20516;-79
2022/12/28 15:52:39;;;;;;;6.38;2.20;;;10.90;99.90;;;;;;6264923;28;20052;-80
2022/12/28 15:55:42;;;;;;;2.40;1.55;;;10.80;99.90;;;;;;6273420;28;20049;-79
2022/12/28 15:58:44;;;;;;;3.28;2.47;;;10.80;99.90;;;;;;6272987;28;20521;-78
2022/12/28 16:01:46;;;;;;;12.68;9.02;;;10.80;99.90;;;;;;6273470;28;20052;-79
2022/12/28 16:04:47;;;;;;;14.80;10.05;;;10.80;99.90;;;;;;6272109;28;20556;-79
2022/12/28 16:07:49;;;;;;;11.38;10.15;;;10.80;99.90;;;;;;6270834;28;20494;-79
2022/12/28 16:10:52;;;;;;;9.05;8.20;;;10.70;99.90;;;;;;6251100;28;20041;-80
2022/12/28 16:13:56;;;;;;;2.17;1.98;;;10.70;99.90;;;;;;6247966;28;20049;-80
2022/12/28 16:16:57;;;;;;;1.20;1.10;;;10.70;99.90;;;;;;6248337;28;20049;-80
2022/12/28 16:19:59;;;;;;;1.75;1.40;;;10.70;99.90;;;;;;6264135;28;20057;-81
2022/12/28 16:23:01;;;;;;;4.10;1.48;;;10.70;99.90;;;;;;6272917;28;20528;-80
2022/12/28 16:26:05;;;;;;;1.77;1.13;;;10.70;99.90;;;;;;6274818;28;20392;-83
2022/12/28 16:29:07;;;;;;;1.08;0.95;;;10.70;99.90;;;;;;6276925;28;20048;-81
2022/12/28 16:32:09;;;;;;;1.00;0.90;;;10.70;99.90;;;;;;6271985;28;20057;-79